Time;durP1;ratioP1;P1;durP2;ratioP2;P2;SDS_P1;SDS_P2;PMS_P1;PMS_P2;Temp;Humidity;BMP_temperature;BMP_pressure;BME280_temperature;BME280_humidity;BME280_pressure;Samples;Min_cycle;Max_cycle;Signal;HPM_P1;HPM_P2
2021/08/13 15:54:47;;;;;;;0.40;0.00;;;;;;;28.71;35.99;100920.73;126151;1092;102994;-72
2021/08/13 15:57:21;;;;;;;0.40;0.00;;;;;;;28.75;35.90;100910.31;126003;1092;102877;-72
2021/08/13 15:59:48;;;;;;;0.40;0.00;;;;;;;28.72;35.81;100911.47;126043;1093;102931;-69
2021/08/13 16:02:15;;;;;;;0.40;0.00;;;;;;;28.64;36.44;100914.05;125976;1093;102953;-70
2021/08/13 16:04:43;;;;;;;0.40;0.00;;;;;;;28.65;36.13;100924.05;126177;1093;103186;-72
2021/08/13 16:07:10;;;;;;;0.40;0.00;;;;;;;28.57;35.74;100916.51;126132;1093;103015;-72
2021/08/13 16:09:38;;;;;;;0.40;0.00;;;;;;;28.45;35.64;100912.20;126092;1093;103060;-72
2021/08/13 16:12:09;;;;;;;0.40;0.00;;;;;;;28.46;35.69;100911.20;126112;1093;102881;-72
2021/08/13 16:14:36;;;;;;;0.40;0.00;;;;;;;28.45;36.51;100912.20;126059;1093;102910;-70
2021/08/13 16:17:03;;;;;;;0.40;0.00;;;;;;;28.35;35.65;100910.32;126123;1092;102879;-71
2021/08/13 16:19:31;;;;;;;0.40;0.00;;;;;;;28.29;36.08;100915.52;126071;1093;103151;-71
2021/08/13 16:21:59;;;;;;;0.40;0.00;;;;;;;28.14;35.77;100910.45;126117;1093;102919;-71
2021/08/13 16:24:26;;;;;;;0.40;0.00;;;;;;;28.07;36.75;100906.56;126195;1092;102878;-71
2021/08/13 16:26:53;;;;;;;0.40;0.00;;;;;;;27.96;35.79;100903.91;126135;1093;103080;-71
2021/08/13 16:29:20;;;;;;;0.40;0.00;;;;;;;27.90;36.47;100905.34;126149;1093;103227;-72
2021/08/13 16:31:47;;;;;;;0.40;0.00;;;;;;;27.79;36.65;100894.50;126011;1092;102903;-70
2021/08/13 16:34:15;;;;;;;0.40;0.00;;;;;;;27.71;36.07;100889.75;126204;1092;103029;-71
2021/08/13 16:36:42;;;;;;;0.40;0.00;;;;;;;27.62;36.31;100896.91;126150;1093;102878;-71
2021/08/13 16:39:09;;;;;;;0.40;0.00;;;;;;;27.61;36.20;100894.33;126116;1092;103174;-72
2021/08/13 16:41:36;;;;;;;0.40;0.00;;;;;;;27.55;35.35;100897.61;126158;1093;103063;-70
2021/08/13 16:44:03;;;;;;;0.40;0.00;;;;;;;27.57;36.39;100898.34;126110;1093;104791;-71
2021/08/13 16:46:31;;;;;;;0.40;0.00;;;;;;;27.56;36.72;100899.34;126046;1094;103258;-71
2021/08/13 16:48:58;;;;;;;0.40;0.00;;;;;;;27.49;37.21;100897.16;125954;1093;103031;-71
2021/08/13 16:51:26;;;;;;;0.40;0.00;;;;;;;27.37;36.70;100884.59;125918;1093;103042;-71
2021/08/13 16:53:53;;;;;;;0.40;0.00;;;;;;;27.27;37.14;100900.05;126061;1093;103345;-71
2021/08/13 16:56:20;;;;;;;0.40;0.00;;;;;;;27.17;37.26;100889.94;126023;1093;103075;-71
2021/08/13 16:58:47;;;;;;;0.40;0.00;;;;;;;27.11;38.12;100890.50;126000;1092;103470;-70
2021/08/13 17:01:14;;;;;;;0.40;0.00;;;;;;;27.01;38.01;100884.95;126010;1093;103098;-71
2021/08/13 17:03:42;;;;;;;0.40;0.00;;;;;;;26.98;38.80;100879.77;126018;1093;102935;-71
2021/08/13 17:06:09;;;;;;;0.40;0.00;;;;;;;26.91;38.66;100877.71;126080;1093;102918;-72
2021/08/13 17:08:36;;;;;;;0.40;0.00;;;;;;;26.80;38.85;100882.25;126127;1093;102903;-71
2021/08/13 17:11:03;;;;;;;0.40;0.00;;;;;;;26.74;39.79;100877.34;126092;1093;102953;-71
2021/08/13 17:13:30;;;;;;;0.40;0.00;;;;;;;26.69;39.74;100888.62;126152;1093;103089;-72
2021/08/13 17:15:57;;;;;;;0.40;0.00;;;;;;;26.63;40.63;100880.09;126057;1092;103146;-72
2021/08/13 17:18:25;;;;;;;0.40;0.00;;;;;;;26.58;41.15;100874.16;126112;1093;104154;-72
2021/08/13 17:20:52;;;;;;;0.40;0.00;;;;;;;26.51;40.95;100874.70;126059;1093;102904;-72
2021/08/13 17:23:20;;;;;;;0.40;0.00;;;;;;;26.47;41.22;100889.63;126093;1093;103043;-72
2021/08/13 17:25:47;;;;;;;0.40;0.00;;;;;;;26.45;41.24;100880.69;125999;1093;103415;-68
2021/08/13 17:28:14;;;;;;;0.40;0.00;;;;;;;26.43;40.98;100874.50;126083;1093;103352;-70
2021/08/13 17:30:43;;;;;;;0.40;0.00;;;;;;;26.35;41.58;100879.73;126034;1093;103155;-70
2021/08/13 17:33:10;;;;;;;0.40;0.00;;;;;;;26.27;41.98;100882.26;126072;1093;102916;-71
2021/08/13 17:35:40;;;;;;;0.40;0.00;;;;;;;26.24;43.18;100885.27;126057;1093;103167;-70
2021/08/13 17:38:07;;;;;;;0.40;0.00;;;;;;;26.23;42.66;100878.06;126088;1092;103049;-70
2021/08/13 17:40:34;;;;;;;0.40;0.00;;;;;;;26.21;42.92;100880.92;125907;1093;102895;-70
2021/08/13 17:43:02;;;;;;;0.40;0.00;;;;;;;26.18;44.15;100879.32;125985;1093;103290;-71
2021/08/13 17:45:29;;;;;;;0.40;0.00;;;;;;;26.07;44.70;100886.68;125884;1092;102893;-72
2021/08/13 17:47:56;;;;;;;0.40;0.00;;;;;;;26.00;45.53;100883.57;126064;1093;103213;-72
2021/08/13 17:50:24;;;;;;;0.40;0.00;;;;;;;25.88;45.88;100877.27;126055;1093;102925;-72
2021/08/13 17:52:51;;;;;;;0.40;0.00;;;;;;;25.75;46.34;100882.91;126126;1093;102961;-72
2021/08/13 17:55:18;;;;;;;0.40;0.00;;;;;;;25.60;46.96;100875.98;126098;1092;103124;-71
2021/08/13 17:57:45;;;;;;;0.40;0.00;;;;;;;25.50;46.07;100874.01;126072;1093;102900;-72
2021/08/13 18:00:16;;;;;;;0.40;0.00;;;;;;;25.45;45.94;100876.24;126083;1093;102995;-74
2021/08/13 18:02:43;;;;;;;0.40;0.00;;;;;;;25.46;45.97;100877.98;126032;1096;105395;-72
2021/08/13 18:05:11;;;;;;;0.40;0.00;;;;;;;25.39;46.04;100884.05;126042;1092;102910;-71
2021/08/13 18:07:39;;;;;;;0.40;0.00;;;;;;;25.29;45.99;100882.05;126078;1093;102988;-71
2021/08/13 18:10:07;;;;;;;0.40;0.00;;;;;;;25.20;45.20;100883.67;126054;1093;102906;-73
2021/08/13 18:12:36;;;;;;;0.40;0.00;;;;;;;25.13;45.75;100889.73;126071;1093;102969;-73
2021/08/13 18:15:05;;;;;;;0.40;0.00;;;;;;;25.07;46.06;100888.38;126030;1093;102992;-73
2021/08/13 18:17:33;;;;;;;0.40;0.00;;;;;;;25.02;45.49;100880.55;126063;1093;102878;-73
2021/08/13 18:20:00;;;;;;;0.40;0.00;;;;;;;24.92;46.16;100884.98;126050;1092;102906;-72
2021/08/13 18:22:27;;;;;;;0.40;0.00;;;;;;;24.85;46.52;100879.16;126092;1093;103090;-71
2021/08/13 18:24:54;;;;;;;0.40;0.00;;;;;;;24.76;46.34;100887.20;125952;1093;102972;-71
2021/08/13 18:27:25;;;;;;;0.40;0.00;;;;;;;24.65;46.29;100890.77;126062;1093;102921;-71
2021/08/13 18:29:52;;;;;;;0.40;0.00;;;;;;;24.63;46.32;100885.45;126063;1093;103161;-71
2021/08/13 18:32:19;;;;;;;0.40;0.00;;;;;;;24.66;46.69;100890.64;125931;1093;102935;-71
2021/08/13 18:34:47;;;;;;;0.40;0.00;;;;;;;24.61;47.06;100895.55;126039;1091;103065;-71
2021/08/13 18:37:14;;;;;;;0.40;0.00;;;;;;;24.59;46.80;100889.37;126060;1093;102992;-72
2021/08/13 18:39:43;;;;;;;0.40;0.00;;;;;;;24.52;46.55;100880.80;126009;1092;103103;-70
2021/08/13 18:42:11;;;;;;;0.40;0.00;;;;;;;24.42;46.63;100890.67;126018;1093;103038;-72
2021/08/13 18:44:38;;;;;;;0.40;0.00;;;;;;;24.40;47.06;100895.34;126094;1093;103352;-72
2021/08/13 18:47:07;;;;;;;0.40;0.00;;;;;;;24.42;47.50;100885.22;126150;1093;103110;-70
2021/08/13 18:49:34;;;;;;;0.40;0.00;;;;;;;24.38;47.15;100886.45;126109;1093;102899;-70
2021/08/13 18:52:01;;;;;;;0.40;0.00;;;;;;;24.41;47.40;100885.34;126108;1093;103032;-71
2021/08/13 18:54:30;;;;;;;0.40;0.00;;;;;;;24.32;47.05;100876.02;126138;1093;102911;-72
2021/08/13 18:56:57;;;;;;;0.40;0.00;;;;;;;24.29;47.57;100876.27;126136;1093;103041;-72
2021/08/13 18:59:24;;;;;;;0.40;0.00;;;;;;;24.27;47.06;100880.94;126130;1093;102965;-70
2021/08/13 19:01:52;;;;;;;0.40;0.00;;;;;;;24.21;47.13;100883.14;126079;1093;102894;-70
2021/08/13 19:04:19;;;;;;;0.40;0.00;;;;;;;24.16;47.54;100876.33;126136;1093;103032;-72
2021/08/13 19:06:46;;;;;;;0.40;0.00;;;;;;;24.13;47.68;100876.56;126189;1093;103139;-72
2021/08/13 19:09:13;;;;;;;0.40;0.00;;;;;;;24.04;47.65;100876.28;126106;1093;102884;-72
2021/08/13 19:11:40;;;;;;;0.40;0.00;;;;;;;23.97;48.06;100882.30;126127;1093;102915;-72
2021/08/13 19:14:08;;;;;;;0.40;0.00;;;;;;;23.96;47.84;100880.55;126127;1093;103387;-72
2021/08/13 19:16:35;;;;;;;0.40;0.00;;;;;;;23.88;48.42;100879.27;126141;1092;102906;-73
2021/08/13 19:19:03;;;;;;;0.40;0.00;;;;;;;23.84;48.36;100876.87;126109;1093;103036;-72
2021/08/13 19:21:30;;;;;;;0.40;0.00;;;;;;;23.80;48.42;100881.66;126038;1092;103009;-72
2021/08/13 19:23:57;;;;;;;0.40;0.00;;;;;;;23.68;48.21;100874.42;126147;1093;102968;-72
2021/08/13 19:26:25;;;;;;;0.40;0.00;;;;;;;23.65;48.50;100880.09;126176;1093;103055;-72
2021/08/13 19:28:52;;;;;;;0.40;0.00;;;;;;;23.59;48.28;100883.26;126171;1092;102977;-72
2021/08/13 19:31:19;;;;;;;0.40;0.00;;;;;;;23.52;49.18;100874.69;126122;1093;103091;-72
2021/08/13 19:33:47;;;;;;;0.40;0.00;;;;;;;23.51;49.49;100875.66;126146;1093;102913;-72
2021/08/13 19:36:14;;;;;;;0.40;0.00;;;;;;;23.44;48.98;100871.66;126146;1092;102919;-73
2021/08/13 19:38:42;;;;;;;0.40;0.00;;;;;;;23.36;49.02;100864.92;126139;1093;103051;-73
2021/08/13 19:41:09;;;;;;;0.40;0.00;;;;;;;23.34;49.94;100874.20;125984;1093;103334;-73
2021/08/13 19:43:36;;;;;;;0.40;0.00;;;;;;;23.32;49.68;100873.42;125983;1096;104221;-73
2021/08/13 19:46:03;;;;;;;0.40;0.00;;;;;;;23.27;49.66;100862.91;126055;1093;102975;-73
2021/08/13 19:48:31;;;;;;;0.40;0.00;;;;;;;23.24;49.29;100859.53;126125;1093;102988;-73
2021/08/13 19:50:58;;;;;;;0.40;0.00;;;;;;;23.15;49.98;100861.94;126068;1093;103044;-73
2021/08/13 19:53:25;;;;;;;0.40;0.00;;;;;;;23.08;49.85;100857.88;126094;1092;102971;-72
2021/08/13 19:55:52;;;;;;;0.40;0.00;;;;;;;23.03;50.27;100869.08;126114;1093;103045;-73
2021/08/13 19:58:19;;;;;;;0.40;0.00;;;;;;;23.03;50.74;100869.08;126161;1093;103039;-71
2021/08/13 20:00:47;;;;;;;0.40;0.00;;;;;;;22.99;50.60;100874.83;126108;1093;102927;-73
2021/08/13 20:03:15;;;;;;;0.40;0.00;;;;;;;22.98;50.34;100875.80;126053;1093;103147;-72
2021/08/13 20:05:42;;;;;;;0.40;0.00;;;;;;;22.93;50.83;100876.14;126072;1095;103122;-72
2021/08/13 20:08:23;;;;;;;0.40;0.00;;;;;;;22.87;51.13;100882.89;126114;1093;102948;-72
2021/08/13 20:10:50;;;;;;;0.40;0.00;;;;;;;22.83;51.27;100870.50;126119;1092;102870;-72
2021/08/13 20:13:17;;;;;;;0.40;0.00;;;;;;;22.77;51.07;100867.34;126100;1092;102885;-73
2021/08/13 20:15:45;;;;;;;0.40;0.00;;;;;;;22.73;51.63;100871.27;126062;1092;103079;-72
2021/08/13 20:18:12;;;;;;;0.40;0.00;;;;;;;22.72;51.31;100870.38;126124;1092;102886;-72
2021/08/13 20:20:39;;;;;;;0.40;0.00;;;;;;;22.68;51.47;100866.99;126031;1093;102991;-72
2021/08/13 20:23:06;;;;;;;0.40;0.00;;;;;;;22.64;51.80;100872.76;126078;1093;102959;-72
2021/08/13 20:25:34;;;;;;;0.40;0.00;;;;;;;22.68;52.27;100872.42;126130;1093;103397;-73
2021/08/13 20:28:05;;;;;;;0.40;0.00;;;;;;;22.73;52.23;100863.97;126051;1093;103046;-72
2021/08/13 20:30:32;;;;;;;0.40;0.00;;;;;;;22.69;52.27;100863.31;126175;1096;103049;-72
2021/08/13 20:33:01;;;;;;;0.40;0.00;;;;;;;22.61;52.26;100870.27;126118;1093;102975;-72
2021/08/13 20:35:29;;;;;;;0.40;0.00;;;;;;;22.56;52.49;100867.00;125968;1093;103110;-72
2021/08/13 20:37:56;;;;;;;0.40;0.00;;;;;;;22.53;52.50;100859.94;126043;1093;102920;-72
2021/08/13 20:40:23;;;;;;;0.40;0.00;;;;;;;22.47;52.94;100858.52;126096;1093;102887;-72
2021/08/13 20:42:50;;;;;;;0.40;0.00;;;;;;;22.43;52.44;100856.11;126125;1095;102980;-72
2021/08/13 20:45:18;;;;;;;0.40;0.00;;;;;;;22.38;53.01;100853.73;126115;1093;102897;-72
2021/08/13 20:47:46;;;;;;;0.40;0.00;;;;;;;22.33;53.18;100845.86;125957;1093;103470;-72
2021/08/13 20:50:13;;;;;;;0.40;0.00;;;;;;;22.30;53.23;100845.19;125947;1093;102953;-72
2021/08/13 20:52:40;;;;;;;0.40;0.00;;;;;;;22.24;53.67;100848.34;126079;1092;103332;-70
2021/08/13 20:55:08;;;;;;;0.40;0.00;;;;;;;22.24;53.39;100841.06;126111;1093;102984;-72
2021/08/13 20:57:35;;;;;;;0.40;0.00;;;;;;;22.21;53.28;100831.28;126010;1093;103012;-72
2021/08/13 21:00:04;;;;;;;0.40;0.00;;;;;;;22.18;53.43;100826.08;126150;1093;102959;-72
2021/08/13 21:02:31;;;;;;;0.40;0.00;;;;;;;22.18;53.65;100828.79;126066;1093;102909;-72
2021/08/13 21:04:59;;;;;;;0.40;0.00;;;;;;;22.19;53.39;100835.08;126138;1093;103052;-72
2021/08/13 21:07:26;;;;;;;0.40;0.00;;;;;;;22.21;54.05;100836.70;126153;1093;103012;-72
2021/08/13 21:09:53;;;;;;;0.40;0.00;;;;;;;22.16;54.21;100838.01;126170;1093;103044;-71
2021/08/13 21:12:20;;;;;;;0.40;0.00;;;;;;;22.12;53.93;100828.34;126145;1092;103047;-72
2021/08/13 21:14:47;;;;;;;0.40;0.00;;;;;;;22.10;54.07;100831.16;126074;1093;103442;-72
2021/08/13 21:17:15;;;;;;;0.40;0.00;;;;;;;22.07;54.27;100831.35;126198;1093;102878;-72
2021/08/13 21:19:45;;;;;;;0.40;0.00;;;;;;;22.02;54.03;100830.82;126182;1092;103189;-72
2021/08/13 21:22:13;;;;;;;0.40;0.00;;;;;;;22.03;54.28;100829.83;126118;1096;103492;-72
2021/08/13 21:24:40;;;;;;;0.40;0.00;;;;;;;21.98;54.46;100821.13;126127;1093;102914;-72
2021/08/13 21:27:07;;;;;;;0.40;0.00;;;;;;;21.96;55.03;100831.22;126165;1093;102984;-69
2021/08/13 21:29:35;;;;;;;0.40;0.00;;;;;;;21.92;55.11;100825.13;126172;1093;102955;-72
2021/08/13 21:32:03;;;;;;;0.40;0.00;;;;;;;21.91;54.62;100817.95;126109;1093;103003;-72
2021/08/13 21:34:32;;;;;;;0.40;0.00;;;;;;;21.91;55.13;100814.39;126186;1093;103309;-72
2021/08/13 21:37:00;;;;;;;0.40;0.00;;;;;;;21.88;55.12;100810.04;126321;1092;102917;-71
2021/08/13 21:39:27;;;;;;;0.40;0.00;;;;;;;21.80;55.52;100805.13;126370;1094;102972;-71
2021/08/13 21:41:56;;;;;;;0.40;0.00;;;;;;;21.84;55.40;100805.80;126283;1096;102962;-72
2021/08/13 21:44:24;;;;;;;0.40;0.00;;;;;;;21.85;55.38;100810.26;126205;1093;102967;-71
2021/08/13 21:46:51;;;;;;;0.40;0.00;;;;;;;21.83;55.45;100814.90;126227;1092;103106;-71
2021/08/13 21:49:22;;;;;;;0.40;0.00;;;;;;;21.80;55.78;100810.55;126317;1093;102903;-71
2021/08/13 21:51:49;;;;;;;0.40;0.00;;;;;;;21.76;55.99;100811.73;126243;1093;103026;-71
2021/08/13 21:54:17;;;;;;;0.40;0.00;;;;;;;21.73;56.71;100820.08;126280;1093;103006;-71
2021/08/13 21:56:44;;;;;;;0.40;0.00;;;;;;;21.73;55.81;100821.94;126290;1093;103023;-71
2021/08/13 21:59:11;;;;;;;0.40;0.00;;;;;;;21.70;56.31;100817.58;126316;1093;102878;-71
2021/08/13 22:01:40;;;;;;;0.40;0.00;;;;;;;21.63;57.31;100810.81;126307;1093;103036;-72
2021/08/13 22:04:08;;;;;;;0.40;0.00;;;;;;;21.60;56.88;100806.46;126301;1094;102900;-71
2021/08/13 22:06:35;;;;;;;0.40;0.00;;;;;;;21.60;56.58;100801.04;126319;1093;103097;-72
2021/08/13 22:09:02;;;;;;;0.40;0.00;;;;;;;21.51;56.56;100804.33;126328;1092;102884;-70
2021/08/13 22:11:29;;;;;;;0.40;0.00;;;;;;;21.44;56.87;100803.00;126144;1093;103213;-70
2021/08/13 22:13:56;;;;;;;0.40;0.00;;;;;;;21.41;56.86;100803.21;126153;1093;102886;-70
2021/08/13 22:16:24;;;;;;;0.40;0.00;;;;;;;21.38;57.14;100806.98;126104;1093;103122;-70
2021/08/13 22:18:51;;;;;;;0.40;0.00;;;;;;;21.33;57.04;100809.98;126184;1093;102961;-70
2021/08/13 22:21:18;;;;;;;0.40;0.00;;;;;;;21.26;57.16;100805.05;126234;1093;102978;-70
2021/08/13 22:23:45;;;;;;;0.40;0.00;;;;;;;21.18;57.66;100798.31;126239;1093;103873;-70
2021/08/13 22:26:12;;;;;;;0.40;0.00;;;;;;;21.12;57.79;100797.83;126209;1093;102923;-71
2021/08/13 22:28:40;;;;;;;0.40;0.00;;;;;;;21.10;57.73;100792.52;126184;1092;102978;-71
2021/08/13 22:31:07;;;;;;;0.40;0.00;;;;;;;21.08;57.87;100788.17;126186;1093;102878;-71
2021/08/13 22:33:34;;;;;;;0.40;0.00;;;;;;;21.06;57.84;100788.27;126160;1093;103306;-70
2021/08/13 22:36:01;;;;;;;0.40;0.00;;;;;;;21.05;58.08;100787.38;126272;1093;102900;-71
2021/08/13 22:38:29;;;;;;;0.40;0.00;;;;;;;20.98;58.39;100775.22;126212;1092;102908;-70
2021/08/13 22:40:56;;;;;;;0.40;0.00;;;;;;;20.96;58.49;100782.56;126114;1093;103489;-70
2021/08/13 22:43:23;;;;;;;0.40;0.00;;;;;;;20.99;58.23;100776.08;126176;1093;103055;-70
2021/08/13 22:45:50;;;;;;;0.40;0.00;;;;;;;20.96;58.47;100779.84;126035;1093;102921;-69
2021/08/13 22:48:17;;;;;;;0.40;0.00;;;;;;;20.98;58.12;100780.63;126101;1093;102929;-70
2021/08/13 22:50:44;;;;;;;0.40;0.08;;;;;;;21.05;58.41;100779.26;126147;1093;103412;-70
2021/08/13 22:53:12;;;;;;;0.40;0.00;;;;;;;21.07;58.31;100781.00;126170;1093;102915;-70
2021/08/13 22:55:39;;;;;;;0.40;0.00;;;;;;;21.00;58.89;100772.41;126105;1092;103033;-70
2021/08/13 22:58:06;;;;;;;0.40;0.00;;;;;;;20.98;58.90;100772.52;126112;1093;103091;-70
2021/08/13 23:00:33;;;;;;;0.40;0.00;;;;;;;20.94;58.66;100761.96;126148;1093;103393;-70
2021/08/13 23:03:01;;;;;;;0.40;0.00;;;;;;;20.91;58.97;100765.73;126121;1093;102995;-69
2021/08/13 23:05:28;;;;;;;0.40;0.00;;;;;;;20.90;59.01;100765.84;126104;1093;103053;-69
2021/08/13 23:07:55;;;;;;;0.40;0.00;;;;;;;20.85;59.13;100761.59;126116;1093;102977;-71
2021/08/13 23:10:22;;;;;;;0.40;0.00;;;;;;;20.84;59.33;100758.98;126056;1092;102933;-71
2021/08/13 23:12:49;;;;;;;0.40;0.00;;;;;;;20.87;58.97;100762.38;126110;1093;103081;-71
2021/08/13 23:15:17;;;;;;;0.40;0.00;;;;;;;20.86;59.12;100760.63;126034;1093;102881;-71
2021/08/13 23:17:44;;;;;;;0.40;0.00;;;;;;;20.82;59.18;100759.09;126158;1093;102905;-71
2021/08/13 23:20:12;;;;;;;0.40;0.00;;;;;;;20.78;59.57;100765.66;126202;1092;103390;-71
2021/08/13 23:22:39;;;;;;;0.40;0.00;;;;;;;20.78;59.44;100759.36;126150;1093;102974;-71
2021/08/13 23:25:07;;;;;;;0.40;0.10;;;;;;;20.82;59.26;100761.80;126216;1092;102905;-71
2021/08/13 23:27:34;;;;;;;0.40;0.10;;;;;;;20.84;59.66;100762.55;126124;1092;102379;-71
2021/08/13 23:30:02;;;;;;;0.40;0.10;;;;;;;20.83;59.15;100758.13;126172;1092;103319;-71
2021/08/13 23:32:29;;;;;;;0.40;0.00;;;;;;;20.82;59.34;100756.38;126040;1093;102974;-71
2021/08/13 23:34:56;;;;;;;0.40;0.00;;;;;;;20.78;59.38;100762.07;126177;1093;102966;-71
2021/08/13 23:37:23;;;;;;;0.40;0.00;;;;;;;20.80;59.46;100765.56;126138;1091;103342;-72
2021/08/13 23:39:50;;;;;;;0.40;0.10;;;;;;;20.80;59.35;100760.15;126151;1092;103187;-71
2021/08/13 23:42:17;;;;;;;0.40;0.00;;;;;;;20.78;59.91;100762.95;126161;1092;102876;-71
2021/08/13 23:44:45;;;;;;;0.40;0.00;;;;;;;20.79;59.34;100762.00;126205;1093;103216;-71
2021/08/13 23:47:12;;;;;;;0.40;0.00;;;;;;;20.78;59.98;100762.07;126191;1092;102905;-71
2021/08/13 23:49:40;;;;;;;0.40;0.00;;;;;;;20.80;59.87;100762.86;126229;1092;102913;-71
2021/08/13 23:52:07;;;;;;;0.40;0.00;;;;;;;20.83;59.44;100768.95;126203;1093;103016;-71
2021/08/13 23:54:34;;;;;;;0.40;0.00;;;;;;;20.85;59.70;100764.30;126107;1092;102903;-71
2021/08/13 23:57:02;;;;;;;0.40;0.00;;;;;;;20.81;59.99;100762.75;126227;1093;103329;-71
2021/08/13 23:59:29;;;;;;;0.40;0.00;;;;;;;20.71;59.77;100762.48;126143;1093;102973;-71
